Terminal Aerodrome Forecast
Issued by NWS Northern Indiana

Home | Current Version | Previous Version | Text Only | Print | Product List | Glossary Off
Versions: 1 2 3 4 5 6 7 8 9 10 11 12 13 14 15

000
FTUS43 KIWX 211122
TAFFWA
TAF
KFWA 211122Z 2112/2212 18006KT P6SM BKN045
     FM211500 24007KT P6SM VCSH SCT025 BKN045
     FM220400 VRB04KT 1SM BR BKN006=

USA.gov is the U.S. government's official web portal to all federal, state and local government web resources and services.